sensor_id;sensor_type;location;lat;lon;timestamp;P1;durP1;ratioP1;P2;durP2;ratioP2
69795;SDS011;57073;45.650;9.612;2023-08-31T00:02:59;1.60;;;1.10;;
69795;SDS011;57073;45.650;9.612;2023-08-31T00:08:00;2.75;;;1.10;;
69795;SDS011;57073;45.650;9.612;2023-08-31T00:13:03;1.20;;;0.90;;
69795;SDS011;57073;45.650;9.612;2023-08-31T00:18:04;1.65;;;0.98;;
69795;SDS011;57073;45.650;9.612;2023-08-31T00:23:04;1.93;;;1.07;;
69795;SDS011;57073;45.650;9.612;2023-08-31T00:28:05;2.23;;;0.77;;
69795;SDS011;57073;45.650;9.612;2023-08-31T00:33:05;1.23;;;0.80;;
69795;SDS011;57073;45.650;9.612;2023-08-31T00:38:06;1.33;;;0.80;;
69795;SDS011;57073;45.650;9.612;2023-08-31T00:43:06;2.57;;;1.00;;
69795;SDS011;57073;45.650;9.612;2023-08-31T00:48:07;1.60;;;0.80;;
69795;SDS011;57073;45.650;9.612;2023-08-31T00:53:08;4.27;;;0.90;;
69795;SDS011;57073;45.650;9.612;2023-08-31T00:58:08;1.70;;;0.97;;
69795;SDS011;57073;45.650;9.612;2023-08-31T01:03:12;6.72;;;0.95;;
69795;SDS011;57073;45.650;9.612;2023-08-31T01:13:24;2.95;;;1.05;;
69795;SDS011;57073;45.650;9.612;2023-08-31T01:18:25;1.93;;;1.20;;
69795;SDS011;57073;45.650;9.612;2023-08-31T01:23:29;1.92;;;0.80;;
69795;SDS011;57073;45.650;9.612;2023-08-31T01:28:59;2.40;;;1.60;;
69795;SDS011;57073;45.650;9.612;2023-08-31T01:34:00;2.57;;;0.90;;
69795;SDS011;57073;45.650;9.612;2023-08-31T01:39:04;2.57;;;1.00;;
69795;SDS011;57073;45.650;9.612;2023-08-31T01:44:11;1.23;;;0.82;;
69795;SDS011;57073;45.650;9.612;2023-08-31T01:49:15;1.17;;;0.95;;
69795;SDS011;57073;45.650;9.612;2023-08-31T01:54:16;1.80;;;0.90;;
69795;SDS011;57073;45.650;9.612;2023-08-31T01:59:17;1.50;;;0.80;;
69795;SDS011;57073;45.650;9.612;2023-08-31T02:04:17;1.10;;;0.90;;
69795;SDS011;57073;45.650;9.612;2023-08-31T02:09:17;2.37;;;0.70;;
69795;SDS011;57073;45.650;9.612;2023-08-31T02:14:18;4.13;;;0.97;;
69795;SDS011;57073;45.650;9.612;2023-08-31T02:19:18;1.53;;;0.70;;
69795;SDS011;57073;45.650;9.612;2023-08-31T02:24:19;2.93;;;0.80;;
69795;SDS011;57073;45.650;9.612;2023-08-31T02:29:19;1.38;;;0.90;;
69795;SDS011;57073;45.650;9.612;2023-08-31T02:34:20;1.57;;;0.77;;
69795;SDS011;57073;45.650;9.612;2023-08-31T02:39:20;2.93;;;1.10;;
69795;SDS011;57073;45.650;9.612;2023-08-31T02:44:20;1.77;;;0.70;;
69795;SDS011;57073;45.650;9.612;2023-08-31T02:49:21;2.57;;;0.97;;
69795;SDS011;57073;45.650;9.612;2023-08-31T02:54:21;1.10;;;0.80;;
69795;SDS011;57073;45.650;9.612;2023-08-31T02:59:22;1.20;;;0.60;;
69795;SDS011;57073;45.650;9.612;2023-08-31T03:04:22;1.83;;;0.63;;
69795;SDS011;57073;45.650;9.612;2023-08-31T03:09:22;1.40;;;0.80;;
69795;SDS011;57073;45.650;9.612;2023-08-31T03:14:23;1.10;;;0.60;;
69795;SDS011;57073;45.650;9.612;2023-08-31T03:19:23;2.40;;;0.70;;
69795;SDS011;57073;45.650;9.612;2023-08-31T03:24:23;2.90;;;0.90;;
69795;SDS011;57073;45.650;9.612;2023-08-31T03:29:24;1.03;;;0.67;;
69795;SDS011;57073;45.650;9.612;2023-08-31T03:34:28;2.53;;;0.97;;
69795;SDS011;57073;45.650;9.612;2023-08-31T03:39:29;2.50;;;0.60;;
69795;SDS011;57073;45.650;9.612;2023-08-31T03:44:29;1.67;;;0.67;;
69795;SDS011;57073;45.650;9.612;2023-08-31T03:49:30;2.70;;;0.90;;
69795;SDS011;57073;45.650;9.612;2023-08-31T03:54:31;2.30;;;0.70;;
69795;SDS011;57073;45.650;9.612;2023-08-31T03:59:32;3.17;;;0.77;;
69795;SDS011;57073;45.650;9.612;2023-08-31T04:04:32;2.37;;;0.70;;
69795;SDS011;57073;45.650;9.612;2023-08-31T04:09:34;2.13;;;0.90;;
69795;SDS011;57073;45.650;9.612;2023-08-31T04:14:34;1.20;;;0.77;;
69795;SDS011;57073;45.650;9.612;2023-08-31T04:19:34;1.37;;;0.80;;
69795;SDS011;57073;45.650;9.612;2023-08-31T04:24:36;1.40;;;0.98;;
69795;SDS011;57073;45.650;9.612;2023-08-31T04:29:36;1.10;;;0.70;;
69795;SDS011;57073;45.650;9.612;2023-08-31T04:34:37;2.67;;;0.90;;
69795;SDS011;57073;45.650;9.612;2023-08-31T04:39:37;2.07;;;0.70;;
69795;SDS011;57073;45.650;9.612;2023-08-31T04:44:37;1.50;;;0.80;;
69795;SDS011;57073;45.650;9.612;2023-08-31T04:49:38;1.47;;;0.90;;
69795;SDS011;57073;45.650;9.612;2023-08-31T04:54:38;1.30;;;0.80;;
69795;SDS011;57073;45.650;9.612;2023-08-31T04:59:39;1.33;;;0.80;;
69795;SDS011;57073;45.650;9.612;2023-08-31T05:04:39;3.90;;;0.70;;
69795;SDS011;57073;45.650;9.612;2023-08-31T05:09:39;4.93;;;1.03;;
69795;SDS011;57073;45.650;9.612;2023-08-31T05:14:40;1.07;;;0.57;;
69795;SDS011;57073;45.650;9.612;2023-08-31T05:19:40;2.10;;;0.70;;
69795;SDS011;57073;45.650;9.612;2023-08-31T05:24:40;1.17;;;0.67;;
69795;SDS011;57073;45.650;9.612;2023-08-31T05:29:41;1.73;;;0.70;;
69795;SDS011;57073;45.650;9.612;2023-08-31T05:34:41;2.43;;;0.57;;
69795;SDS011;57073;45.650;9.612;2023-08-31T05:39:41;1.97;;;0.70;;
69795;SDS011;57073;45.650;9.612;2023-08-31T05:44:42;3.90;;;1.13;;
69795;SDS011;57073;45.650;9.612;2023-08-31T05:49:42;1.50;;;0.70;;
69795;SDS011;57073;45.650;9.612;2023-08-31T05:54:42;1.10;;;0.77;;
69795;SDS011;57073;45.650;9.612;2023-08-31T05:59:43;2.00;;;0.80;;
69795;SDS011;57073;45.650;9.612;2023-08-31T06:04:43;1.63;;;0.70;;
69795;SDS011;57073;45.650;9.612;2023-08-31T06:09:44;3.73;;;0.80;;
69795;SDS011;57073;45.650;9.612;2023-08-31T06:14:44;3.17;;;0.70;;
69795;SDS011;57073;45.650;9.612;2023-08-31T06:19:44;2.70;;;0.77;;
69795;SDS011;57073;45.650;9.612;2023-08-31T06:24:45;2.83;;;0.80;;
69795;SDS011;57073;45.650;9.612;2023-08-31T06:29:45;2.58;;;0.70;;
69795;SDS011;57073;45.650;9.612;2023-08-31T06:34:46;2.70;;;0.90;;
69795;SDS011;57073;45.650;9.612;2023-08-31T06:39:46;2.53;;;0.80;;
69795;SDS011;57073;45.650;9.612;2023-08-31T06:44:46;5.83;;;1.20;;
69795;SDS011;57073;45.650;9.612;2023-08-31T06:49:47;5.93;;;1.60;;
69795;SDS011;57073;45.650;9.612;2023-08-31T06:54:47;2.80;;;1.10;;
69795;SDS011;57073;45.650;9.612;2023-08-31T06:59:48;1.63;;;0.80;;
69795;SDS011;57073;45.650;9.612;2023-08-31T07:04:48;4.20;;;1.00;;
69795;SDS011;57073;45.650;9.612;2023-08-31T07:09:48;3.40;;;1.10;;
69795;SDS011;57073;45.650;9.612;2023-08-31T07:14:49;2.00;;;0.80;;
69795;SDS011;57073;45.650;9.612;2023-08-31T07:19:49;2.23;;;0.90;;
69795;SDS011;57073;45.650;9.612;2023-08-31T07:24:50;2.90;;;1.10;;
69795;SDS011;57073;45.650;9.612;2023-08-31T07:29:50;4.23;;;1.20;;
69795;SDS011;57073;45.650;9.612;2023-08-31T07:34:50;2.33;;;1.03;;
69795;SDS011;57073;45.650;9.612;2023-08-31T07:39:51;2.20;;;1.10;;
69795;SDS011;57073;45.650;9.612;2023-08-31T07:44:51;3.50;;;1.00;;
69795;SDS011;57073;45.650;9.612;2023-08-31T07:49:51;2.10;;;0.80;;
69795;SDS011;57073;45.650;9.612;2023-08-31T07:54:52;1.93;;;1.17;;
69795;SDS011;57073;45.650;9.612;2023-08-31T07:59:53;2.60;;;0.80;;
69795;SDS011;57073;45.650;9.612;2023-08-31T08:04:54;1.77;;;1.10;;
69795;SDS011;57073;45.650;9.612;2023-08-31T08:09:54;3.83;;;1.20;;
69795;SDS011;57073;45.650;9.612;2023-08-31T08:14:55;2.83;;;1.37;;
69795;SDS011;57073;45.650;9.612;2023-08-31T08:19:55;2.63;;;1.63;;
69795;SDS011;57073;45.650;9.612;2023-08-31T08:24:55;4.87;;;2.10;;
69795;SDS011;57073;45.650;9.612;2023-08-31T08:29:56;3.70;;;1.80;;
69795;SDS011;57073;45.650;9.612;2023-08-31T08:34:56;3.30;;;2.03;;
69795;SDS011;57073;45.650;9.612;2023-08-31T08:39:56;2.37;;;1.40;;
69795;SDS011;57073;45.650;9.612;2023-08-31T08:44:57;3.60;;;1.87;;
69795;SDS011;57073;45.650;9.612;2023-08-31T08:49:58;3.57;;;1.70;;
69795;SDS011;57073;45.650;9.612;2023-08-31T08:55:00;4.23;;;1.80;;
69795;SDS011;57073;45.650;9.612;2023-08-31T09:00:01;3.58;;;1.73;;
69795;SDS011;57073;45.650;9.612;2023-08-31T09:05:03;3.47;;;1.80;;
69795;SDS011;57073;45.650;9.612;2023-08-31T09:10:03;5.87;;;2.00;;
69795;SDS011;57073;45.650;9.612;2023-08-31T09:15:05;4.07;;;2.20;;
69795;SDS011;57073;45.650;9.612;2023-08-31T09:20:06;5.10;;;1.90;;
69795;SDS011;57073;45.650;9.612;2023-08-31T09:25:07;4.35;;;1.60;;
69795;SDS011;57073;45.650;9.612;2023-08-31T09:30:08;5.27;;;2.20;;
69795;SDS011;57073;45.650;9.612;2023-08-31T09:35:09;6.10;;;1.80;;
69795;SDS011;57073;45.650;9.612;2023-08-31T09:40:11;4.40;;;1.97;;
69795;SDS011;57073;45.650;9.612;2023-08-31T09:45:16;4.68;;;2.20;;
69795;SDS011;57073;45.650;9.612;2023-08-31T09:50:17;4.70;;;2.28;;
69795;SDS011;57073;45.650;9.612;2023-08-31T09:55:19;5.37;;;2.30;;
69795;SDS011;57073;45.650;9.612;2023-08-31T10:00:21;5.03;;;2.40;;
69795;SDS011;57073;45.650;9.612;2023-08-31T10:05:21;7.50;;;3.70;;
69795;SDS011;57073;45.650;9.612;2023-08-31T10:10:23;5.85;;;2.80;;
69795;SDS011;57073;45.650;9.612;2023-08-31T10:15:24;9.30;;;3.30;;
69795;SDS011;57073;45.650;9.612;2023-08-31T10:20:31;5.03;;;2.60;;
69795;SDS011;57073;45.650;9.612;2023-08-31T10:36:08;4.88;;;2.47;;
69795;SDS011;57073;45.650;9.612;2023-08-31T10:51:30;6.23;;;2.90;;
69795;SDS011;57073;45.650;9.612;2023-08-31T10:56:32;6.32;;;2.90;;
69795;SDS011;57073;45.650;9.612;2023-08-31T11:12:16;4.25;;;2.95;;
69795;SDS011;57073;45.650;9.612;2023-08-31T11:17:17;4.03;;;2.83;;
69795;SDS011;57073;45.650;9.612;2023-08-31T11:22:18;4.87;;;2.80;;
69795;SDS011;57073;45.650;9.612;2023-08-31T11:27:19;4.53;;;3.08;;
69795;SDS011;57073;45.650;9.612;2023-08-31T11:32:22;6.43;;;3.43;;
69795;SDS011;57073;45.650;9.612;2023-08-31T11:37:24;5.57;;;3.13;;
69795;SDS011;57073;45.650;9.612;2023-08-31T11:42:25;4.80;;;2.57;;
69795;SDS011;57073;45.650;9.612;2023-08-31T11:47:25;7.73;;;2.90;;
69795;SDS011;57073;45.650;9.612;2023-08-31T11:52:26;4.20;;;2.90;;
69795;SDS011;57073;45.650;9.612;2023-08-31T11:57:27;4.00;;;2.13;;
69795;SDS011;57073;45.650;9.612;2023-08-31T12:02:28;4.40;;;2.22;;
69795;SDS011;57073;45.650;9.612;2023-08-31T12:07:28;3.63;;;2.10;;
69795;SDS011;57073;45.650;9.612;2023-08-31T12:12:29;3.63;;;2.15;;
69795;SDS011;57073;45.650;9.612;2023-08-31T12:17:36;3.47;;;2.10;;
69795;SDS011;57073;45.650;9.612;2023-08-31T12:22:38;4.63;;;2.13;;
69795;SDS011;57073;45.650;9.612;2023-08-31T12:27:38;5.03;;;2.30;;
69795;SDS011;57073;45.650;9.612;2023-08-31T12:32:39;3.90;;;1.90;;
69795;SDS011;57073;45.650;9.612;2023-08-31T12:37:39;5.83;;;2.00;;
69795;SDS011;57073;45.650;9.612;2023-08-31T12:42:39;4.40;;;2.00;;
69795;SDS011;57073;45.650;9.612;2023-08-31T12:47:40;4.23;;;2.10;;
69795;SDS011;57073;45.650;9.612;2023-08-31T12:52:40;4.40;;;1.90;;
69795;SDS011;57073;45.650;9.612;2023-08-31T12:57:44;3.03;;;1.80;;
69795;SDS011;57073;45.650;9.612;2023-08-31T13:02:44;4.73;;;1.73;;
69795;SDS011;57073;45.650;9.612;2023-08-31T13:07:45;2.60;;;1.83;;
69795;SDS011;57073;45.650;9.612;2023-08-31T13:12:45;4.10;;;1.70;;
69795;SDS011;57073;45.650;9.612;2023-08-31T13:17:45;4.97;;;2.10;;
69795;SDS011;57073;45.650;9.612;2023-08-31T13:22:46;4.47;;;2.10;;
69795;SDS011;57073;45.650;9.612;2023-08-31T13:27:46;3.43;;;1.70;;
69795;SDS011;57073;45.650;9.612;2023-08-31T13:32:47;5.27;;;2.00;;
69795;SDS011;57073;45.650;9.612;2023-08-31T13:37:47;4.00;;;2.00;;
69795;SDS011;57073;45.650;9.612;2023-08-31T13:42:54;3.97;;;2.00;;
69795;SDS011;57073;45.650;9.612;2023-08-31T13:47:59;4.30;;;2.17;;
69795;SDS011;57073;45.650;9.612;2023-08-31T13:53:05;4.78;;;2.10;;
69795;SDS011;57073;45.650;9.612;2023-08-31T13:58:05;2.00;;;1.80;;
69795;SDS011;57073;45.650;9.612;2023-08-31T14:03:07;4.07;;;1.60;;
69795;SDS011;57073;45.650;9.612;2023-08-31T14:08:07;4.10;;;1.77;;
69795;SDS011;57073;45.650;9.612;2023-08-31T14:13:10;3.47;;;1.73;;
69795;SDS011;57073;45.650;9.612;2023-08-31T14:18:11;1.80;;;1.50;;
69795;SDS011;57073;45.650;9.612;2023-08-31T14:23:12;4.13;;;1.80;;
69795;SDS011;57073;45.650;9.612;2023-08-31T14:28:13;2.50;;;1.80;;
69795;SDS011;57073;45.650;9.612;2023-08-31T14:33:13;2.07;;;1.53;;
69795;SDS011;57073;45.650;9.612;2023-08-31T14:38:17;4.10;;;1.53;;
69795;SDS011;57073;45.650;9.612;2023-08-31T14:43:21;2.40;;;1.85;;
69795;SDS011;57073;45.650;9.612;2023-08-31T14:48:22;4.47;;;1.70;;
69795;SDS011;57073;45.650;9.612;2023-08-31T14:53:24;2.38;;;1.88;;
69795;SDS011;57073;45.650;9.612;2023-08-31T14:58:24;2.00;;;1.50;;
69795;SDS011;57073;45.650;9.612;2023-08-31T15:03:25;3.17;;;1.70;;
69795;SDS011;57073;45.650;9.612;2023-08-31T15:08:36;6.47;;;1.90;;
69795;SDS011;57073;45.650;9.612;2023-08-31T15:13:37;6.60;;;2.00;;
69795;SDS011;57073;45.650;9.612;2023-08-31T15:18:37;3.70;;;1.70;;
69795;SDS011;57073;45.650;9.612;2023-08-31T15:23:38;2.53;;;1.70;;
69795;SDS011;57073;45.650;9.612;2023-08-31T15:28:38;3.27;;;1.90;;
69795;SDS011;57073;45.650;9.612;2023-08-31T15:33:39;2.27;;;1.97;;
69795;SDS011;57073;45.650;9.612;2023-08-31T15:38:39;4.53;;;2.00;;
69795;SDS011;57073;45.650;9.612;2023-08-31T15:43:39;4.13;;;2.03;;
69795;SDS011;57073;45.650;9.612;2023-08-31T15:48:40;3.15;;;1.80;;
69795;SDS011;57073;45.650;9.612;2023-08-31T15:53:41;4.67;;;2.20;;
69795;SDS011;57073;45.650;9.612;2023-08-31T15:58:41;6.10;;;2.17;;
69795;SDS011;57073;45.650;9.612;2023-08-31T16:03:42;4.33;;;2.00;;
69795;SDS011;57073;45.650;9.612;2023-08-31T16:08:43;3.80;;;1.60;;
69795;SDS011;57073;45.650;9.612;2023-08-31T16:13:43;2.87;;;1.80;;
69795;SDS011;57073;45.650;9.612;2023-08-31T16:18:44;1.93;;;1.50;;
69795;SDS011;57073;45.650;9.612;2023-08-31T16:23:44;3.87;;;1.80;;
69795;SDS011;57073;45.650;9.612;2023-08-31T16:28:44;2.93;;;1.80;;
69795;SDS011;57073;45.650;9.612;2023-08-31T16:33:45;5.23;;;1.73;;
69795;SDS011;57073;45.650;9.612;2023-08-31T16:38:45;2.67;;;1.60;;
69795;SDS011;57073;45.650;9.612;2023-08-31T16:43:46;4.10;;;1.77;;
69795;SDS011;57073;45.650;9.612;2023-08-31T16:48:46;4.33;;;1.50;;
69795;SDS011;57073;45.650;9.612;2023-08-31T16:53:46;3.90;;;1.83;;
69795;SDS011;57073;45.650;9.612;2023-08-31T16:58:47;3.77;;;1.97;;
69795;SDS011;57073;45.650;9.612;2023-08-31T17:03:47;2.50;;;1.70;;
69795;SDS011;57073;45.650;9.612;2023-08-31T17:08:47;6.27;;;1.90;;
69795;SDS011;57073;45.650;9.612;2023-08-31T17:13:49;3.15;;;1.50;;
69795;SDS011;57073;45.650;9.612;2023-08-31T17:18:49;3.60;;;1.97;;
69795;SDS011;57073;45.650;9.612;2023-08-31T17:23:49;6.23;;;1.80;;
69795;SDS011;57073;45.650;9.612;2023-08-31T17:28:50;5.40;;;1.97;;
69795;SDS011;57073;45.650;9.612;2023-08-31T17:33:51;3.97;;;1.70;;
69795;SDS011;57073;45.650;9.612;2023-08-31T17:38:52;3.65;;;1.80;;
69795;SDS011;57073;45.650;9.612;2023-08-31T17:43:52;7.00;;;2.00;;
69795;SDS011;57073;45.650;9.612;2023-08-31T17:48:53;3.57;;;1.83;;
69795;SDS011;57073;45.650;9.612;2023-08-31T17:53:53;4.33;;;1.80;;
69795;SDS011;57073;45.650;9.612;2023-08-31T17:58:56;6.83;;;2.50;;
69795;SDS011;57073;45.650;9.612;2023-08-31T18:03:57;2.77;;;2.30;;
69795;SDS011;57073;45.650;9.612;2023-08-31T18:08:57;6.03;;;2.10;;
69795;SDS011;57073;45.650;9.612;2023-08-31T18:13:58;2.93;;;2.13;;
69795;SDS011;57073;45.650;9.612;2023-08-31T18:18:58;3.63;;;1.97;;
69795;SDS011;57073;45.650;9.612;2023-08-31T18:23:59;3.60;;;2.03;;
69795;SDS011;57073;45.650;9.612;2023-08-31T18:29:00;3.33;;;2.05;;
69795;SDS011;57073;45.650;9.612;2023-08-31T18:34:00;4.67;;;2.07;;
69795;SDS011;57073;45.650;9.612;2023-08-31T18:39:03;6.83;;;2.53;;
69795;SDS011;57073;45.650;9.612;2023-08-31T18:44:07;5.10;;;2.93;;
69795;SDS011;57073;45.650;9.612;2023-08-31T18:49:07;3.97;;;2.50;;
69795;SDS011;57073;45.650;9.612;2023-08-31T18:54:07;5.00;;;2.60;;
69795;SDS011;57073;45.650;9.612;2023-08-31T18:59:08;9.53;;;2.83;;
69795;SDS011;57073;45.650;9.612;2023-08-31T19:04:08;4.23;;;2.53;;
69795;SDS011;57073;45.650;9.612;2023-08-31T19:09:08;5.60;;;2.57;;
69795;SDS011;57073;45.650;9.612;2023-08-31T19:14:09;5.95;;;2.75;;
69795;SDS011;57073;45.650;9.612;2023-08-31T19:19:10;3.90;;;2.37;;
69795;SDS011;57073;45.650;9.612;2023-08-31T19:24:10;4.53;;;2.50;;
69795;SDS011;57073;45.650;9.612;2023-08-31T19:29:10;3.53;;;2.30;;
69795;SDS011;57073;45.650;9.612;2023-08-31T19:34:11;4.10;;;2.37;;
69795;SDS011;57073;45.650;9.612;2023-08-31T19:39:11;4.53;;;2.30;;
69795;SDS011;57073;45.650;9.612;2023-08-31T19:44:11;4.80;;;2.50;;
69795;SDS011;57073;45.650;9.612;2023-08-31T19:49:12;4.53;;;2.50;;
69795;SDS011;57073;45.650;9.612;2023-08-31T19:54:12;4.13;;;2.20;;
69795;SDS011;57073;45.650;9.612;2023-08-31T19:59:14;3.80;;;2.50;;
69795;SDS011;57073;45.650;9.612;2023-08-31T20:04:14;2.90;;;2.20;;
69795;SDS011;57073;45.650;9.612;2023-08-31T20:09:15;5.10;;;2.20;;
69795;SDS011;57073;45.650;9.612;2023-08-31T20:14:15;5.47;;;2.50;;
69795;SDS011;57073;45.650;9.612;2023-08-31T20:19:16;3.63;;;2.30;;
69795;SDS011;57073;45.650;9.612;2023-08-31T20:24:17;5.70;;;2.40;;
69795;SDS011;57073;45.650;9.612;2023-08-31T20:29:18;3.70;;;2.17;;
69795;SDS011;57073;45.650;9.612;2023-08-31T20:34:20;3.05;;;2.10;;
69795;SDS011;57073;45.650;9.612;2023-08-31T20:39:20;2.60;;;2.03;;
69795;SDS011;57073;45.650;9.612;2023-08-31T20:44:21;4.27;;;1.90;;
69795;SDS011;57073;45.650;9.612;2023-08-31T20:49:22;3.43;;;1.97;;
69795;SDS011;57073;45.650;9.612;2023-08-31T20:54:22;3.17;;;1.77;;
69795;SDS011;57073;45.650;9.612;2023-08-31T20:59:23;4.18;;;1.70;;
69795;SDS011;57073;45.650;9.612;2023-08-31T21:04:23;2.70;;;2.07;;
69795;SDS011;57073;45.650;9.612;2023-08-31T21:09:23;2.30;;;1.90;;
69795;SDS011;57073;45.650;9.612;2023-08-31T21:14:24;3.43;;;1.80;;
69795;SDS011;57073;45.650;9.612;2023-08-31T21:19:24;3.00;;;2.00;;
69795;SDS011;57073;45.650;9.612;2023-08-31T21:24:25;4.07;;;1.87;;
69795;SDS011;57073;45.650;9.612;2023-08-31T21:29:25;3.73;;;2.50;;
69795;SDS011;57073;45.650;9.612;2023-08-31T21:34:25;3.33;;;2.27;;
69795;SDS011;57073;45.650;9.612;2023-08-31T21:39:26;2.40;;;1.90;;
69795;SDS011;57073;45.650;9.612;2023-08-31T21:44:26;2.87;;;2.10;;
69795;SDS011;57073;45.650;9.612;2023-08-31T21:49:27;3.97;;;2.13;;
69795;SDS011;57073;45.650;9.612;2023-08-31T21:54:27;3.20;;;2.03;;
69795;SDS011;57073;45.650;9.612;2023-08-31T21:59:27;2.93;;;1.57;;
69795;SDS011;57073;45.650;9.612;2023-08-31T22:04:28;5.63;;;1.90;;
69795;SDS011;57073;45.650;9.612;2023-08-31T22:09:28;3.47;;;1.57;;
69795;SDS011;57073;45.650;9.612;2023-08-31T22:14:28;2.27;;;1.43;;
69795;SDS011;57073;45.650;9.612;2023-08-31T22:19:29;3.83;;;1.87;;
69795;SDS011;57073;45.650;9.612;2023-08-31T22:24:29;3.57;;;1.70;;
69795;SDS011;57073;45.650;9.612;2023-08-31T22:29:30;2.13;;;1.83;;
69795;SDS011;57073;45.650;9.612;2023-08-31T22:34:30;3.70;;;1.77;;
69795;SDS011;57073;45.650;9.612;2023-08-31T22:39:31;3.27;;;1.60;;
69795;SDS011;57073;45.650;9.612;2023-08-31T22:44:31;2.10;;;1.73;;
69795;SDS011;57073;45.650;9.612;2023-08-31T22:49:31;3.83;;;2.03;;
69795;SDS011;57073;45.650;9.612;2023-08-31T22:54:32;2.03;;;1.47;;
69795;SDS011;57073;45.650;9.612;2023-08-31T22:59:32;2.77;;;1.53;;
69795;SDS011;57073;45.650;9.612;2023-08-31T23:04:33;2.90;;;1.70;;
69795;SDS011;57073;45.650;9.612;2023-08-31T23:09:34;5.60;;;1.70;;
69795;SDS011;57073;45.650;9.612;2023-08-31T23:14:35;4.88;;;1.98;;
69795;SDS011;57073;45.650;9.612;2023-08-31T23:19:35;3.23;;;1.77;;
69795;SDS011;57073;45.650;9.612;2023-08-31T23:24:36;3.90;;;2.00;;
69795;SDS011;57073;45.650;9.612;2023-08-31T23:29:36;2.87;;;1.60;;
69795;SDS011;57073;45.650;9.612;2023-08-31T23:34:37;3.50;;;1.70;;
69795;SDS011;57073;45.650;9.612;2023-08-31T23:39:37;3.20;;;1.70;;
69795;SDS011;57073;45.650;9.612;2023-08-31T23:44:38;3.57;;;1.73;;
69795;SDS011;57073;45.650;9.612;2023-08-31T23:49:38;1.77;;;1.53;;
69795;SDS011;57073;45.650;9.612;2023-08-31T23:54:38;3.63;;;1.67;;
69795;SDS011;57073;45.650;9.612;2023-08-31T23:59:40;2.67;;;1.50;;
